sensor_id;sensor_type;location;lat;lon;timestamp;pressure;altitude;pressure_sealevel;temperature;humidity
55590;BME280;41452;42.780;23.116;2023-08-17T00:00:01;94427.88;;;18.05;100.00
55590;BME280;41452;42.780;23.116;2023-08-17T00:02:28;94449.56;;;18.22;100.00
55590;BME280;41452;42.780;23.116;2023-08-17T00:04:56;94468.69;;;18.24;100.00
55590;BME280;41452;42.780;23.116;2023-08-17T00:07:22;94489.16;;;18.19;100.00
55590;BME280;41452;42.780;23.116;2023-08-17T00:09:47;94474.84;;;18.15;100.00
55590;BME280;41452;42.780;23.116;2023-08-17T00:12:13;94478.06;;;18.12;100.00
55590;BME280;41452;42.780;23.116;2023-08-17T00:14:38;94473.06;;;18.00;100.00
55590;BME280;41452;42.780;23.116;2023-08-17T00:17:03;94470.19;;;17.96;100.00
55590;BME280;41452;42.780;23.116;2023-08-17T00:19:29;94468.56;;;17.95;100.00
55590;BME280;41452;42.780;23.116;2023-08-17T00:21:54;94480.25;;;17.94;100.00
55590;BME280;41452;42.780;23.116;2023-08-17T00:24:20;94474.16;;;17.83;100.00
55590;BME280;41452;42.780;23.116;2023-08-17T00:26:46;94472.34;;;17.89;100.00
55590;BME280;41452;42.780;23.116;2023-08-17T00:29:11;94478.94;;;17.92;100.00
55590;BME280;41452;42.780;23.116;2023-08-17T00:31:36;94478.16;;;17.96;100.00
55590;BME280;41452;42.780;23.116;2023-08-17T00:34:02;94409.50;;;17.54;100.00
55590;BME280;41452;42.780;23.116;2023-08-17T00:36:27;94460.09;;;17.88;100.00
55590;BME280;41452;42.780;23.116;2023-08-17T00:38:53;94463.03;;;17.81;100.00
55590;BME280;41452;42.780;23.116;2023-08-17T00:41:18;94471.56;;;17.78;100.00
55590;BME280;41452;42.780;23.116;2023-08-17T00:43:43;94446.38;;;17.60;100.00
55590;BME280;41452;42.780;23.116;2023-08-17T00:46:10;94466.50;;;17.77;100.00
55590;BME280;41452;42.780;23.116;2023-08-17T00:48:36;94464.88;;;17.81;100.00
55590;BME280;41452;42.780;23.116;2023-08-17T00:51:01;94471.56;;;17.78;100.00
55590;BME280;41452;42.780;23.116;2023-08-17T00:53:29;94472.88;;;17.86;100.00
55590;BME280;41452;42.780;23.116;2023-08-17T00:55:56;94449.25;;;17.74;100.00
55590;BME280;41452;42.780;23.116;2023-08-17T00:58:22;94471.25;;;17.90;100.00
55590;BME280;41452;42.780;23.116;2023-08-17T01:00:47;94409.75;;;17.62;100.00
55590;BME280;41452;42.780;23.116;2023-08-17T01:03:13;94463.78;;;17.97;100.00
55590;BME280;41452;42.780;23.116;2023-08-17T01:05:40;94467.75;;;18.00;100.00
55590;BME280;41452;42.780;23.116;2023-08-17T01:08:05;94476.50;;;18.05;100.00
55590;BME280;41452;42.780;23.116;2023-08-17T01:10:37;94473.59;;;18.02;100.00
55590;BME280;41452;42.780;23.116;2023-08-17T01:13:11;94468.78;;;18.04;100.00
55590;BME280;41452;42.780;23.116;2023-08-17T01:15:49;94468.00;;;18.03;100.00
55590;BME280;41452;42.780;23.116;2023-08-17T01:18:23;94465.13;;;17.95;100.00
55590;BME280;41452;42.780;23.116;2023-08-17T01:20:52;94460.88;;;17.89;100.00
55590;BME280;41452;42.780;23.116;2023-08-17T01:23:18;94465.94;;;17.85;100.00
55590;BME280;41452;42.780;23.116;2023-08-17T01:25:44;94468.59;;;17.85;100.00
55590;BME280;41452;42.780;23.116;2023-08-17T01:28:10;94454.56;;;17.74;100.00
55590;BME280;41452;42.780;23.116;2023-08-17T01:30:48;94465.13;;;17.84;100.00
55590;BME280;41452;42.780;23.116;2023-08-17T01:33:22;94435.19;;;17.68;100.00
55590;BME280;41452;42.780;23.116;2023-08-17T01:36:17;94444.50;;;17.66;100.00
55590;BME280;41452;42.780;23.116;2023-08-17T01:38:45;94456.72;;;17.67;100.00
55590;BME280;41452;42.780;23.116;2023-08-17T01:41:12;94452.22;;;17.62;100.00
55590;BME280;41452;42.780;23.116;2023-08-17T01:43:44;94453.50;;;17.70;100.00
55590;BME280;41452;42.780;23.116;2023-08-17T01:46:14;94447.44;;;17.59;100.00
55590;BME280;41452;42.780;23.116;2023-08-17T01:48:41;94419.13;;;17.34;100.00
55590;BME280;41452;42.780;23.116;2023-08-17T02:06:34;94459.38;;;17.57;100.00
55590;BME280;41452;42.780;23.116;2023-08-17T02:08:59;94449.88;;;17.45;100.00
55590;BME280;41452;42.780;23.116;2023-08-17T02:11:25;94464.19;;;17.49;100.00
55590;BME280;41452;42.780;23.116;2023-08-17T02:13:50;94452.56;;;17.35;100.00
55590;BME280;41452;42.780;23.116;2023-08-17T02:16:15;94444.88;;;17.28;100.00
55590;BME280;41452;42.780;23.116;2023-08-17T02:18:41;94463.19;;;17.35;100.00
55590;BME280;41452;42.780;23.116;2023-08-17T02:21:06;94448.88;;;17.26;100.00
55590;BME280;41452;42.780;23.116;2023-08-17T02:23:32;94429.00;;;17.13;100.00
55590;BME280;41452;42.780;23.116;2023-08-17T02:25:57;94451.78;;;17.29;100.00
55590;BME280;41452;42.780;23.116;2023-08-17T02:28:22;94452.56;;;17.35;100.00
55590;BME280;41452;42.780;23.116;2023-08-17T02:30:48;94447.81;;;17.32;100.00
55590;BME280;41452;42.780;23.116;2023-08-17T02:33:14;94445.16;;;17.27;100.00
55590;BME280;41452;42.780;23.116;2023-08-17T02:35:39;94455.47;;;17.39;100.00
55590;BME280;41452;42.780;23.116;2023-08-17T02:38:04;94457.84;;;17.40;100.00
55590;BME280;41452;42.780;23.116;2023-08-17T02:40:30;94458.13;;;17.39;100.00
55590;BME280;41452;42.780;23.116;2023-08-17T02:42:55;94451.50;;;17.31;100.00
55590;BME280;41452;42.780;23.116;2023-08-17T02:45:21;94457.38;;;17.23;100.00
55590;BME280;41452;42.780;23.116;2023-08-17T02:47:46;94448.88;;;17.16;100.00
55590;BME280;41452;42.780;23.116;2023-08-17T02:50:11;94458.44;;;17.22;100.00
55590;BME280;41452;42.780;23.116;2023-08-17T02:52:37;94452.31;;;17.21;100.00
55590;BME280;41452;42.780;23.116;2023-08-17T02:55:02;94434.59;;;17.06;100.00
55590;BME280;41452;42.780;23.116;2023-08-17T02:57:28;94453.69;;;17.14;100.00
55590;BME280;41452;42.780;23.116;2023-08-17T02:59:53;94452.63;;;17.09;100.00
55590;BME280;41452;42.780;23.116;2023-08-17T03:02:18;94449.19;;;17.09;100.00
55590;BME280;41452;42.780;23.116;2023-08-17T03:04:44;94458.72;;;17.05;100.00
55590;BME280;41452;42.780;23.116;2023-08-17T03:07:09;94454.75;;;17.07;100.00
55590;BME280;41452;42.780;23.116;2023-08-17T03:09:34;94455.28;;;17.04;100.00
55590;BME280;41452;42.780;23.116;2023-08-17T03:12:00;94447.06;;;17.01;100.00
55590;BME280;41452;42.780;23.116;2023-08-17T03:14:25;94451.84;;;16.94;100.00
55590;BME280;41452;42.780;23.116;2023-08-17T03:16:51;94451.06;;;16.93;100.00
55590;BME280;41452;42.780;23.116;2023-08-17T03:19:16;94448.41;;;16.88;100.00
55590;BME280;41452;42.780;23.116;2023-08-17T03:21:42;94453.16;;;16.81;100.00
55590;BME280;41452;42.780;23.116;2023-08-17T03:24:08;94457.16;;;16.83;100.00
55590;BME280;41452;42.780;23.116;2023-08-17T03:26:33;94451.31;;;16.81;100.00
55590;BME280;41452;42.780;23.116;2023-08-17T03:28:58;94444.94;;;16.77;100.00
55590;BME280;41452;42.780;23.116;2023-08-17T03:31:24;94459.00;;;16.83;100.00
55590;BME280;41452;42.780;23.116;2023-08-17T03:33:49;94457.66;;;16.80;100.00
55590;BME280;41452;42.780;23.116;2023-08-17T03:36:15;94438.31;;;16.64;100.00
55590;BME280;41452;42.780;23.116;2023-08-17T03:38:40;94444.16;;;16.66;100.00
55590;BME280;41452;42.780;23.116;2023-08-17T03:41:06;94468.81;;;16.77;100.00
55590;BME280;41452;42.780;23.116;2023-08-17T03:43:32;94455.28;;;16.68;100.00
55590;BME280;41452;42.780;23.116;2023-08-17T03:45:57;94459.78;;;16.68;100.00
55590;BME280;41452;42.780;23.116;2023-08-17T03:48:23;94452.09;;;16.61;100.00
55590;BME280;41452;42.780;23.116;2023-08-17T03:50:55;94469.34;;;16.79;100.00
55590;BME280;41452;42.780;23.116;2023-08-17T03:53:20;94472.25;;;16.83;100.00
55590;BME280;41452;42.780;23.116;2023-08-17T03:55:50;94473.34;;;16.87;100.00
55590;BME280;41452;42.780;23.116;2023-08-17T03:58:16;94456.59;;;16.76;100.00
55590;BME280;41452;42.780;23.116;2023-08-17T04:00:41;94475.47;;;16.85;100.00
55590;BME280;41452;42.780;23.116;2023-08-17T04:03:08;94475.16;;;16.81;100.00
55590;BME280;41452;42.780;23.116;2023-08-17T04:05:33;94460.31;;;16.65;100.00
55590;BME280;41452;42.780;23.116;2023-08-17T04:08:00;94478.06;;;16.69;100.00
55590;BME280;41452;42.780;23.116;2023-08-17T04:10:28;94475.41;;;16.64;100.00
55590;BME280;41452;42.780;23.116;2023-08-17T04:12:53;94469.59;;;16.57;100.00
55590;BME280;41452;42.780;23.116;2023-08-17T04:15:19;94487.63;;;16.55;100.00
55590;BME280;41452;42.780;23.116;2023-08-17T04:17:44;94472.50;;;16.61;100.00
55590;BME280;41452;42.780;23.116;2023-08-17T04:20:10;94473.31;;;16.56;100.00
55590;BME280;41452;42.780;23.116;2023-08-17T04:22:35;94467.47;;;16.49;100.00
55590;BME280;41452;42.780;23.116;2023-08-17T04:25:01;94477.25;;;16.48;100.00
55590;BME280;41452;42.780;23.116;2023-08-17T04:27:26;94472.78;;;16.54;100.00
55590;BME280;41452;42.780;23.116;2023-08-17T04:29:52;94453.94;;;16.40;100.00
55590;BME280;41452;42.780;23.116;2023-08-17T04:32:17;94482.84;;;16.52;100.00
55590;BME280;41452;42.780;23.116;2023-08-17T04:34:46;94474.34;;;16.45;100.00
55590;BME280;41452;42.780;23.116;2023-08-17T04:37:11;94474.34;;;16.50;100.00
55590;BME280;41452;42.780;23.116;2023-08-17T04:39:37;94471.97;;;16.64;100.00
55590;BME280;41452;42.780;23.116;2023-08-17T04:42:03;94474.38;;;16.65;100.00
55590;BME280;41452;42.780;23.116;2023-08-17T04:44:29;94448.66;;;16.50;100.00
55590;BME280;41452;42.780;23.116;2023-08-17T04:46:54;94479.41;;;16.77;100.00
55590;BME280;41452;42.780;23.116;2023-08-17T04:54:30;94465.13;;;16.88;100.00
55590;BME280;41452;42.780;23.116;2023-08-17T04:56:56;94473.84;;;17.04;100.00
55590;BME280;41452;42.780;23.116;2023-08-17T04:59:21;94438.34;;;16.85;100.00
55590;BME280;41452;42.780;23.116;2023-08-17T05:01:46;94471.72;;;17.17;100.00
55590;BME280;41452;42.780;23.116;2023-08-17T05:04:12;94473.81;;;17.30;100.00
55590;BME280;41452;42.780;23.116;2023-08-17T05:06:37;94473.25;;;17.38;100.00
55590;BME280;41452;42.780;23.116;2023-08-17T05:09:04;94462.13;;;17.41;100.00
55590;BME280;41452;42.780;23.116;2023-08-17T05:11:30;94470.00;;;17.62;100.00
55590;BME280;41452;42.780;23.116;2023-08-17T05:13:55;94468.91;;;17.73;100.00
55590;BME280;41452;42.780;23.116;2023-08-17T05:16:21;94471.00;;;17.81;100.00
55590;BME280;41452;42.780;23.116;2023-08-17T05:18:47;94467.53;;;17.91;100.00
55590;BME280;41452;42.780;23.116;2023-08-17T05:21:12;94470.91;;;18.07;100.00
55590;BME280;41452;42.780;23.116;2023-08-17T05:23:38;94470.31;;;18.15;100.00
55590;BME280;41452;42.780;23.116;2023-08-17T05:26:03;94468.16;;;18.22;100.00
55590;BME280;41452;42.780;23.116;2023-08-17T05:28:28;94482.72;;;18.35;100.00
55590;BME280;41452;42.780;23.116;2023-08-17T05:30:54;94471.75;;;18.42;100.00
55590;BME280;41452;42.780;23.116;2023-08-17T05:33:19;94467.22;;;18.48;100.00
55590;BME280;41452;42.780;23.116;2023-08-17T05:35:45;94438.78;;;18.43;100.00
55590;BME280;41452;42.780;23.116;2023-08-17T05:38:10;94476.25;;;18.81;100.00
55590;BME280;41452;42.780;23.116;2023-08-17T05:40:35;94432.56;;;18.58;100.00
55590;BME280;41452;42.780;23.116;2023-08-17T05:43:01;94487.88;;;18.95;100.00
55590;BME280;41452;42.780;23.116;2023-08-17T05:45:26;94492.38;;;19.00;100.00
55590;BME280;41452;42.780;23.116;2023-08-17T05:47:52;94471.09;;;19.00;100.00
55590;BME280;41452;42.780;23.116;2023-08-17T05:50:18;94470.25;;;19.05;100.00
55590;BME280;41452;42.780;23.116;2023-08-17T05:52:43;94488.97;;;19.24;100.00
55590;BME280;41452;42.780;23.116;2023-08-17T05:55:08;94472.53;;;19.16;100.00
55590;BME280;41452;42.780;23.116;2023-08-17T05:57:34;94474.81;;;19.28;100.00
55590;BME280;41452;42.780;23.116;2023-08-17T05:59:59;94445.34;;;19.19;100.00
55590;BME280;41452;42.780;23.116;2023-08-17T06:02:25;94459.63;;;19.29;100.00
55590;BME280;41452;42.780;23.116;2023-08-17T06:04:50;94461.38;;;19.44;100.00
55590;BME280;41452;42.780;23.116;2023-08-17T06:07:15;94466.56;;;19.54;100.00
55590;BME280;41452;42.780;23.116;2023-08-17T06:09:41;94467.53;;;19.63;100.00
55590;BME280;41452;42.780;23.116;2023-08-17T06:12:06;94458.19;;;19.66;100.00
55590;BME280;41452;42.780;23.116;2023-08-17T06:14:32;94469.97;;;19.84;100.00
55590;BME280;41452;42.780;23.116;2023-08-17T06:16:58;94454.06;;;19.79;100.00
55590;BME280;41452;42.780;23.116;2023-08-17T06:19:24;94475.00;;;20.09;100.00
55590;BME280;41452;42.780;23.116;2023-08-17T06:21:49;94469.59;;;20.14;100.00
55590;BME280;41452;42.780;23.116;2023-08-17T06:24:14;94457.97;;;20.05;100.00
55590;BME280;41452;42.780;23.116;2023-08-17T06:26:40;94472.63;;;20.27;100.00
55590;BME280;41452;42.780;23.116;2023-08-17T06:29:05;94474.81;;;20.44;100.00
55590;BME280;41452;42.780;23.116;2023-08-17T06:31:31;94485.81;;;20.56;100.00
55590;BME280;41452;42.780;23.116;2023-08-17T06:33:56;94476.91;;;20.66;100.00
55590;BME280;41452;42.780;23.116;2023-08-17T06:36:22;94473.00;;;20.77;100.00
55590;BME280;41452;42.780;23.116;2023-08-17T06:38:47;94463.03;;;20.83;100.00
55590;BME280;41452;42.780;23.116;2023-08-17T06:41:13;94483.25;;;21.03;100.00
55590;BME280;41452;42.780;23.116;2023-08-17T06:43:38;94465.97;;;21.00;100.00
55590;BME280;41452;42.780;23.116;2023-08-17T06:46:03;94439.72;;;20.88;100.00
55590;BME280;41452;42.780;23.116;2023-08-17T06:48:29;94470.84;;;21.26;100.00
55590;BME280;41452;42.780;23.116;2023-08-17T06:50:56;94495.25;;;21.52;100.00
55590;BME280;41452;42.780;23.116;2023-08-17T06:53:22;94474.03;;;21.42;100.00
55590;BME280;41452;42.780;23.116;2023-08-17T06:55:47;94486.38;;;21.57;100.00
55590;BME280;41452;42.780;23.116;2023-08-17T06:58:12;94470.53;;;21.60;100.00
55590;BME280;41452;42.780;23.116;2023-08-17T07:00:38;94467.97;;;21.69;100.00
55590;BME280;41452;42.780;23.116;2023-08-17T07:10:51;94493.06;;;22.10;100.00
55590;BME280;41452;42.780;23.116;2023-08-17T07:13:16;94482.66;;;22.22;100.00
55590;BME280;41452;42.780;23.116;2023-08-17T07:15:42;94485.94;;;22.33;96.42
55590;BME280;41452;42.780;23.116;2023-08-17T07:18:07;94488.69;;;22.42;95.88
55590;BME280;41452;42.780;23.116;2023-08-17T07:20:32;94489.97;;;22.58;98.77
55590;BME280;41452;42.780;23.116;2023-08-17T07:22:58;94490.44;;;22.60;99.08
55590;BME280;41452;42.780;23.116;2023-08-17T07:25:23;94491.09;;;22.66;95.66
55590;BME280;41452;42.780;23.116;2023-08-17T07:27:49;94489.47;;;22.78;95.12
55590;BME280;41452;42.780;23.116;2023-08-17T07:30:14;94492.50;;;22.86;94.72
55590;BME280;41452;42.780;23.116;2023-08-17T07:32:40;94484.91;;;23.02;89.82
55590;BME280;41452;42.780;23.116;2023-08-17T07:35:06;94483.09;;;23.11;90.76
55590;BME280;41452;42.780;23.116;2023-08-17T07:37:31;94489.88;;;23.08;93.10
55590;BME280;41452;42.780;23.116;2023-08-17T07:39:59;94486.94;;;23.19;88.71
55590;BME280;41452;42.780;23.116;2023-08-17T07:42:24;94489.53;;;23.32;83.27
55590;BME280;41452;42.780;23.116;2023-08-17T07:44:50;94482.72;;;23.58;83.26
55590;BME280;41452;42.780;23.116;2023-08-17T07:47:15;94467.56;;;23.53;82.38
55590;BME280;41452;42.780;23.116;2023-08-17T07:49:40;94456.84;;;23.53;84.08
55590;BME280;41452;42.780;23.116;2023-08-17T07:52:06;94485.63;;;23.79;78.40
55590;BME280;41452;42.780;23.116;2023-08-17T07:54:31;94475.47;;;23.89;79.71
55590;BME280;41452;42.780;23.116;2023-08-17T07:56:57;94482.56;;;23.94;84.61
55590;BME280;41452;42.780;23.116;2023-08-17T07:59:22;94482.59;;;24.03;81.53
55590;BME280;41452;42.780;23.116;2023-08-17T08:01:48;94472.19;;;24.10;80.43
55590;BME280;41452;42.780;23.116;2023-08-17T08:04:13;94467.16;;;24.17;81.08
55590;BME280;41452;42.780;23.116;2023-08-17T08:06:38;94452.47;;;24.06;78.15
55590;BME280;41452;42.780;23.116;2023-08-17T08:09:04;94468.75;;;24.27;79.35
55590;BME280;41452;42.780;23.116;2023-08-17T08:11:29;94413.00;;;23.98;79.27
55590;BME280;41452;42.780;23.116;2023-08-17T08:13:56;94462.00;;;24.47;77.23
55590;BME280;41452;42.780;23.116;2023-08-17T08:16:22;94467.09;;;24.57;75.17
55590;BME280;41452;42.780;23.116;2023-08-17T08:18:47;94466.59;;;24.73;74.12
55590;BME280;41452;42.780;23.116;2023-08-17T08:21:12;94435.97;;;24.65;76.83
55590;BME280;41452;42.780;23.116;2023-08-17T08:23:38;94443.84;;;24.70;76.10
55590;BME280;41452;42.780;23.116;2023-08-17T08:26:03;94453.78;;;24.87;69.95
55590;BME280;41452;42.780;23.116;2023-08-17T08:28:28;94459.28;;;25.08;70.07
55590;BME280;41452;42.780;23.116;2023-08-17T08:30:54;94471.28;;;25.19;70.41
55590;BME280;41452;42.780;23.116;2023-08-17T08:33:19;94437.34;;;24.97;69.17
55590;BME280;41452;42.780;23.116;2023-08-17T08:35:45;94471.09;;;25.33;68.06
55590;BME280;41452;42.780;23.116;2023-08-17T08:38:10;94463.31;;;25.49;66.76
55590;BME280;41452;42.780;23.116;2023-08-17T08:40:37;94452.13;;;25.38;69.80
55590;BME280;41452;42.780;23.116;2023-08-17T08:43:03;94455.88;;;25.55;66.78
55590;BME280;41452;42.780;23.116;2023-08-17T08:45:30;94447.81;;;25.55;67.69
55590;BME280;41452;42.780;23.116;2023-08-17T08:47:57;94401.72;;;25.35;66.73
55590;BME280;41452;42.780;23.116;2023-08-17T08:50:24;94407.75;;;25.62;64.91
55590;BME280;41452;42.780;23.116;2023-08-17T08:52:59;94437.06;;;25.85;64.84
55590;BME280;41452;42.780;23.116;2023-08-17T08:55:28;94416.84;;;25.78;65.45
55590;BME280;41452;42.780;23.116;2023-08-17T08:57:55;94438.63;;;25.94;68.12
55590;BME280;41452;42.780;23.116;2023-08-17T09:00:22;94444.22;;;26.10;65.11
55590;BME280;41452;42.780;23.116;2023-08-17T09:02:48;94449.19;;;26.29;66.82
55590;BME280;41452;42.780;23.116;2023-08-17T09:05:14;94427.97;;;26.28;60.82
55590;BME280;41452;42.780;23.116;2023-08-17T09:07:42;94403.94;;;26.23;60.91
55590;BME280;41452;42.780;23.116;2023-08-17T09:10:09;94439.59;;;26.41;63.46
55590;BME280;41452;42.780;23.116;2023-08-17T09:12:35;94439.53;;;26.49;61.96
55590;BME280;41452;42.780;23.116;2023-08-17T09:15:00;94408.19;;;26.45;59.08
55590;BME280;41452;42.780;23.116;2023-08-17T09:17:26;94415.88;;;26.55;60.14
55590;BME280;41452;42.780;23.116;2023-08-17T09:19:52;94408.38;;;26.61;59.67
55590;BME280;41452;42.780;23.116;2023-08-17T09:25:02;94388.69;;;26.48;59.83
55590;BME280;41452;42.780;23.116;2023-08-17T09:27:27;94424.22;;;26.83;59.60
55590;BME280;41452;42.780;23.116;2023-08-17T09:30:01;94431.69;;;26.99;58.03
55590;BME280;41452;42.780;23.116;2023-08-17T09:32:30;94409.41;;;26.89;59.90
55590;BME280;41452;42.780;23.116;2023-08-17T09:34:55;94410.59;;;27.01;58.16
55590;BME280;41452;42.780;23.116;2023-08-17T09:37:20;94421.97;;;27.19;57.56
55590;BME280;41452;42.780;23.116;2023-08-17T09:39:46;94423.25;;;27.34;55.78
55590;BME280;41452;42.780;23.116;2023-08-17T09:42:11;94419.69;;;27.42;56.31
55590;BME280;41452;42.780;23.116;2023-08-17T09:44:37;94401.34;;;27.35;55.80
55590;BME280;41452;42.780;23.116;2023-08-17T09:47:05;94412.28;;;27.51;58.17
55590;BME280;41452;42.780;23.116;2023-08-17T09:49:31;94415.97;;;27.59;56.14
55590;BME280;41452;42.780;23.116;2023-08-17T09:51:59;94353.38;;;27.28;53.43
55590;BME280;41452;42.780;23.116;2023-08-17T09:54:30;94389.22;;;27.54;56.93
55590;BME280;41452;42.780;23.116;2023-08-17T09:56:57;94379.69;;;27.56;56.29
55590;BME280;41452;42.780;23.116;2023-08-17T09:59:23;94340.34;;;27.43;54.02
55590;BME280;41452;42.780;23.116;2023-08-17T10:01:50;94401.47;;;27.88;57.73
55590;BME280;41452;42.780;23.116;2023-08-17T10:04:20;94390.25;;;27.74;57.38
55590;BME280;41452;42.780;23.116;2023-08-17T10:06:48;94393.06;;;27.77;54.98
55590;BME280;41452;42.780;23.116;2023-08-17T10:09:23;94385.63;;;27.86;52.48
55590;BME280;41452;42.780;23.116;2023-08-17T10:11:52;94374.06;;;27.86;55.04
55590;BME280;41452;42.780;23.116;2023-08-17T10:14:22;94371.59;;;27.93;55.46
55590;BME280;41452;42.780;23.116;2023-08-17T10:16:53;94394.06;;;27.85;54.87
55590;BME280;41452;42.780;23.116;2023-08-17T10:22:17;94379.06;;;28.12;56.92
55590;BME280;41452;42.780;23.116;2023-08-17T10:24:44;94397.03;;;28.33;54.42
55590;BME280;41452;42.780;23.116;2023-08-17T10:27:10;94385.88;;;28.47;50.67
55590;BME280;41452;42.780;23.116;2023-08-17T10:29:38;94390.09;;;28.60;48.72
55590;BME280;41452;42.780;23.116;2023-08-17T10:32:05;94371.53;;;28.58;49.66
55590;BME280;41452;42.780;23.116;2023-08-17T10:34:31;94375.75;;;28.43;53.14
55590;BME280;41452;42.780;23.116;2023-08-17T10:36:57;94374.38;;;28.50;54.14
55590;BME280;41452;42.780;23.116;2023-08-17T10:39:26;94359.56;;;28.31;52.51
55590;BME280;41452;42.780;23.116;2023-08-17T10:41:52;94379.13;;;28.40;53.71
55590;BME280;41452;42.780;23.116;2023-08-17T10:44:40;94373.81;;;28.56;54.24
55590;BME280;41452;42.780;23.116;2023-08-17T10:47:25;94375.00;;;28.71;52.79
55590;BME280;41452;42.780;23.116;2023-08-17T10:49:57;94372.47;;;28.78;48.67
55590;BME280;41452;42.780;23.116;2023-08-17T10:52:34;94354.31;;;28.63;47.62
55590;BME280;41452;42.780;23.116;2023-08-17T10:55:09;94372.03;;;28.76;50.21
55590;BME280;41452;42.780;23.116;2023-08-17T10:57:37;94369.25;;;28.89;48.60
55590;BME280;41452;42.780;23.116;2023-08-17T11:00:22;94369.47;;;28.96;51.89
55590;BME280;41452;42.780;23.116;2023-08-17T11:03:05;94364.38;;;28.78;54.00
55590;BME280;41452;42.780;23.116;2023-08-17T11:05:57;94288.00;;;28.37;52.31
55590;BME280;41452;42.780;23.116;2023-08-17T11:08:31;94357.16;;;28.98;53.83
55590;BME280;41452;42.780;23.116;2023-08-17T11:11:04;94355.97;;;28.96;54.77
55590;BME280;41452;42.780;23.116;2023-08-17T11:13:34;94353.44;;;29.03;52.64
55590;BME280;41452;42.780;23.116;2023-08-17T11:16:01;94345.28;;;29.15;53.12
55590;BME280;41452;42.780;23.116;2023-08-17T11:18:27;94347.84;;;29.12;52.51
55590;BME280;41452;42.780;23.116;2023-08-17T11:20:53;94333.53;;;29.11;47.80
55590;BME280;41452;42.780;23.116;2023-08-17T11:23:19;94333.06;;;29.22;49.27
55590;BME280;41452;42.780;23.116;2023-08-17T11:25:44;94331.56;;;29.24;49.93
55590;BME280;41452;42.780;23.116;2023-08-17T11:28:10;94324.06;;;29.17;49.95
55590;BME280;41452;42.780;23.116;2023-08-17T11:30:36;94331.72;;;29.31;52.21
55590;BME280;41452;42.780;23.116;2023-08-17T11:33:04;94345.31;;;29.51;50.87
55590;BME280;41452;42.780;23.116;2023-08-17T11:35:30;94317.00;;;29.29;50.87
55590;BME280;41452;42.780;23.116;2023-08-17T11:37:55;94347.69;;;29.52;51.71
55590;BME280;41452;42.780;23.116;2023-08-17T11:40:21;94325.72;;;29.38;48.33
55590;BME280;41452;42.780;23.116;2023-08-17T11:42:46;94329.00;;;29.47;46.85
55590;BME280;41452;42.780;23.116;2023-08-17T11:45:13;94324.31;;;29.44;47.27
55590;BME280;41452;42.780;23.116;2023-08-17T11:47:39;94279.13;;;29.29;49.27
55590;BME280;41452;42.780;23.116;2023-08-17T11:50:07;94333.72;;;29.66;47.85
55590;BME280;41452;42.780;23.116;2023-08-17T11:52:33;94334.22;;;29.72;50.53
55590;BME280;41452;42.780;23.116;2023-08-17T11:54:59;94245.09;;;29.28;51.48
55590;BME280;41452;42.780;23.116;2023-08-17T11:57:25;94317.19;;;29.71;50.71
55590;BME280;41452;42.780;23.116;2023-08-17T11:59:55;94326.00;;;29.68;52.15
55590;BME280;41452;42.780;23.116;2023-08-17T12:02:23;94303.88;;;29.63;52.02
55590;BME280;41452;42.780;23.116;2023-08-17T12:04:50;94322.94;;;29.86;51.74
55590;BME280;41452;42.780;23.116;2023-08-17T12:07:15;94305.88;;;29.66;50.13
55590;BME280;41452;42.780;23.116;2023-08-17T12:09:43;94328.72;;;29.84;49.49
55590;BME280;41452;42.780;23.116;2023-08-17T12:12:09;94304.78;;;29.70;50.09
55590;BME280;41452;42.780;23.116;2023-08-17T12:14:34;94306.63;;;29.82;50.87
55590;BME280;41452;42.780;23.116;2023-08-17T12:17:00;94310.94;;;29.83;50.98
55590;BME280;41452;42.780;23.116;2023-08-17T12:19:25;94327.31;;;29.74;51.32
55590;BME280;41452;42.780;23.116;2023-08-17T12:21:51;94318.41;;;29.90;50.95
55590;BME280;41452;42.780;23.116;2023-08-17T12:24:16;94319.00;;;29.99;52.30
55590;BME280;41452;42.780;23.116;2023-08-17T12:26:45;94306.78;;;29.89;51.20
55590;BME280;41452;42.780;23.116;2023-08-17T12:29:11;94318.91;;;29.95;49.92
55590;BME280;41452;42.780;23.116;2023-08-17T12:31:36;94289.63;;;29.66;50.25
55590;BME280;41452;42.780;23.116;2023-08-17T12:34:02;94319.19;;;29.90;49.68
55590;BME280;41452;42.780;23.116;2023-08-17T12:36:28;94330.66;;;29.84;50.54
55590;BME280;41452;42.780;23.116;2023-08-17T12:38:54;94322.94;;;29.86;49.13
55590;BME280;41452;42.780;23.116;2023-08-17T12:41:20;94312.13;;;29.70;49.96
55590;BME280;41452;42.780;23.116;2023-08-17T12:43:45;94320.09;;;29.63;50.47
55590;BME280;41452;42.780;23.116;2023-08-17T12:46:11;94323.97;;;29.62;52.63
55590;BME280;41452;42.780;23.116;2023-08-17T12:48:37;94317.22;;;29.55;50.92
55590;BME280;41452;42.780;23.116;2023-08-17T12:51:03;94320.00;;;29.59;51.98
55590;BME280;41452;42.780;23.116;2023-08-17T12:53:28;94317.91;;;29.68;52.73
55590;BME280;41452;42.780;23.116;2023-08-17T12:55:53;94319.31;;;29.62;52.14
55590;BME280;41452;42.780;23.116;2023-08-17T12:58:19;94294.38;;;29.53;51.73
55590;BME280;41452;42.780;23.116;2023-08-17T13:00:44;94319.94;;;29.55;51.93
55590;BME280;41452;42.780;23.116;2023-08-17T13:03:09;94317.31;;;29.59;51.96
55590;BME280;41452;42.780;23.116;2023-08-17T13:05:35;94309.81;;;29.52;51.19
55590;BME280;41452;42.780;23.116;2023-08-17T13:08:00;94322.75;;;29.43;52.20
55590;BME280;41452;42.780;23.116;2023-08-17T13:10:26;94317.41;;;29.47;51.29
55590;BME280;41452;42.780;23.116;2023-08-17T13:12:51;94314.44;;;29.52;52.89
55590;BME280;41452;42.780;23.116;2023-08-17T13:15:21;94324.50;;;29.51;51.36